Time;durP1;ratioP1;P1;durP2;ratioP2;P2;SDS_P1;SDS_P2;PMS_P1;PMS_P2;Temp;Humidity;BMP_temperature;BMP_pressure;BME280_temperature;BME280_humidity;BME280_pressure;Samples;Min_cycle;Max_cycle;Signal;HPM_P1;HPM_P2
2023/09/19 00:01:23;;;;;;;4.28;2.17;;;15.60;96.00;;;;;;4988637;28;20458;-72
2023/09/19 00:03:49;;;;;;;6.43;2.15;;;15.60;96.10;;;;;;4987754;28;20030;-70
2023/09/19 00:06:15;;;;;;;3.80;1.80;;;15.70;96.00;;;;;;4991321;28;20038;-71
2023/09/19 00:08:44;;;;;;;4.38;1.73;;;15.70;95.80;;;;;;4975930;28;20093;-70
2023/09/19 00:11:10;;;;;;;4.32;1.90;;;15.80;95.90;;;;;;4990387;28;20113;-70
2023/09/19 00:13:36;;;;;;;5.05;2.30;;;15.80;95.80;;;;;;4972582;28;20037;-72
2023/09/19 00:16:10;;;;;;;6.30;2.60;;;15.80;95.70;;;;;;4991169;28;20030;-71
2023/09/19 00:18:36;;;;;;;3.80;2.03;;;15.90;95.70;;;;;;4985229;28;20044;-70
2023/09/19 00:21:04;;;;;;;6.53;2.30;;;15.90;95.80;;;;;;4987517;28;20030;-69
2023/09/19 00:23:31;;;;;;;2.63;1.67;;;15.80;95.70;;;;;;4990931;28;20034;-70
2023/09/19 00:25:59;;;;;;;4.97;2.42;;;15.80;95.80;;;;;;4993490;28;20109;-71
2023/09/19 00:28:24;;;;;;;4.93;2.10;;;15.80;95.90;;;;;;4987830;28;20033;-71
2023/09/19 00:30:50;;;;;;;7.47;2.38;;;15.90;95.80;;;;;;4983159;28;20034;-70
2023/09/19 00:33:16;;;;;;;4.47;2.35;;;15.90;95.70;;;;;;4988525;28;20034;-71
2023/09/19 00:35:53;;;;;;;3.45;2.08;;;15.80;95.80;;;;;;4992896;28;20124;-70
2023/09/19 00:38:24;;;;;;;6.70;2.50;;;15.80;95.80;;;;;;4972563;28;20117;-71
2023/09/19 00:40:53;;;;;;;6.00;2.33;;;15.80;95.90;;;;;;4986050;28;20040;-74
2023/09/19 00:43:23;;;;;;;6.38;2.47;;;15.70;95.90;;;;;;4989525;28;20269;-71
2023/09/19 00:45:51;;;;;;;5.32;2.40;;;15.60;96.10;;;;;;4988990;28;20530;-70
2023/09/19 00:48:18;;;;;;;4.75;2.47;;;15.60;96.20;;;;;;4987760;28;20042;-70
2023/09/19 00:50:45;;;;;;;6.40;2.58;;;15.70;96.10;;;;;;4994786;28;20022;-71
2023/09/19 00:53:14;;;;;;;7.60;2.65;;;15.70;96.10;;;;;;4989507;28;20038;-71
2023/09/19 00:55:42;;;;;;;5.57;2.85;;;15.70;96.10;;;;;;4989463;28;20544;-71
2023/09/19 00:58:08;;;;;;;4.97;2.97;;;15.70;96.10;;;;;;4991228;28;20030;-72
2023/09/19 01:00:34;;;;;;;7.57;3.00;;;15.60;96.10;;;;;;4988855;28;20037;-70
2023/09/19 01:03:03;;;;;;;8.35;3.30;;;15.60;96.30;;;;;;4988703;28;20041;-70
2023/09/19 01:05:29;;;;;;;6.32;3.00;;;15.50;96.20;;;;;;4991150;28;20092;-70
2023/09/19 01:07:55;;;;;;;6.60;3.38;;;15.50;96.40;;;;;;4994360;28;20041;-70
2023/09/19 01:10:21;;;;;;;4.57;2.97;;;15.50;96.30;;;;;;4991023;28;20110;-71
2023/09/19 01:13:12;;;;;;;6.10;3.33;;;15.50;96.40;;;;;;4986651;28;20041;-70
2023/09/19 01:15:46;;;;;;;7.55;3.25;;;15.50;96.20;;;;;;4973719;28;20314;-70
2023/09/19 01:18:40;;;;;;;7.55;3.55;;;15.50;96.30;;;;;;4988813;28;20085;-73
2023/09/19 01:21:15;;;;;;;7.45;3.58;;;15.50;96.10;;;;;;4989095;28;20038;-70
2023/09/19 01:24:06;;;;;;;7.85;3.35;;;15.50;96.00;;;;;;4997012;28;20046;-70
2023/09/19 01:27:09;;;;;;;9.23;3.35;;;15.50;95.90;;;;;;4983508;28;20451;-71
2023/09/19 01:29:46;;;;;;;6.03;2.95;;;15.60;95.80;;;;;;4984640;28;20391;-72
2023/09/19 01:32:15;;;;;;;6.90;3.13;;;15.60;95.80;;;;;;4986292;28;20109;-70
2023/09/19 01:34:53;;;;;;;7.90;3.13;;;15.50;95.90;;;;;;4984115;28;20113;-70
2023/09/19 01:37:25;;;;;;;6.65;2.83;;;15.50;95.90;;;;;;4971388;28;20035;-70
2023/09/19 01:39:56;;;;;;;6.80;3.03;;;15.40;95.90;;;;;;4987542;28;20027;-71
2023/09/19 01:42:24;;;;;;;5.03;3.05;;;15.40;96.10;;;;;;4989291;28;20027;-71
2023/09/19 01:45:13;;;;;;;7.30;3.15;;;15.30;96.20;;;;;;4987577;28;20093;-72
2023/09/19 01:47:49;;;;;;;7.28;3.45;;;15.30;96.20;;;;;;4984198;28;20038;-70
2023/09/19 01:50:40;;;;;;;8.55;3.50;;;15.30;96.20;;;;;;4976834;28;20042;-70
2023/09/19 01:53:24;;;;;;;;;;;15.20;96.20;;;;;;4986052;28;20045;-69
2023/09/19 01:55:52;;;;;;;7.80;2.95;;;15.10;96.30;;;;;;4983088;28;19921;-70
2023/09/19 01:58:29;;;;;;;7.63;3.08;;;15.10;96.50;;;;;;4968553;28;20373;-70
2023/09/19 02:00:58;;;;;;;5.22;3.05;;;15.10;96.50;;;;;;4956573;28;20031;-70
2023/09/19 02:03:24;;;;;;;5.15;2.85;;;15.00;96.60;;;;;;4959328;28;20035;-70
2023/09/19 02:05:53;;;;;;;5.80;3.03;;;15.00;96.70;;;;;;4989524;28;20046;-70
2023/09/19 02:08:20;;;;;;;8.32;3.85;;;15.00;96.70;;;;;;4973388;28;20027;-70
2023/09/19 02:10:48;;;;;;;8.13;3.33;;;15.00;96.70;;;;;;4972634;28;20686;-70
2023/09/19 02:13:18;;;;;;;8.38;3.25;;;15.00;96.80;;;;;;4989554;28;20066;-70
2023/09/19 02:15:44;;;;;;;7.43;3.30;;;15.00;96.60;;;;;;4972544;28;20030;-70
2023/09/19 02:18:11;;;;;;;6.68;3.40;;;15.00;96.70;;;;;;4987345;28;20294;-71
2023/09/19 02:20:37;;;;;;;6.47;3.33;;;15.00;96.60;;;;;;4987780;28;20040;-71
2023/09/19 02:23:04;;;;;;;11.35;3.25;;;15.00;96.60;;;;;;4993927;28;20030;-70
2023/09/19 02:25:30;;;;;;;5.05;2.90;;;15.10;96.30;;;;;;4996138;28;20364;-70
2023/09/19 02:27:58;;;;;;;5.40;3.00;;;15.20;95.90;;;;;;4984810;28;20026;-70
2023/09/19 02:30:25;;;;;;;7.85;2.80;;;15.20;95.80;;;;;;4972500;28;20030;-70
2023/09/19 02:32:50;;;;;;;5.65;2.33;;;15.30;95.60;;;;;;4987616;28;20467;-71
2023/09/19 02:35:16;;;;;;;7.40;2.97;;;15.30;95.40;;;;;;4987306;28;20037;-70
2023/09/19 02:37:41;;;;;;;10.05;3.20;;;15.30;95.10;;;;;;4981634;28;20038;-71
2023/09/19 02:40:18;;;;;;;9.40;3.05;;;15.30;95.00;;;;;;4989383;28;20038;-70
2023/09/19 02:42:49;;;;;;;6.75;2.47;;;15.30;94.90;;;;;;4980755;28;21798;-70
2023/09/19 02:45:15;;;;;;;7.68;2.58;;;15.30;94.80;;;;;;4984515;28;20635;-70
2023/09/19 02:47:41;;;;;;;4.55;1.77;;;15.30;94.70;;;;;;4968115;28;20038;-70
2023/09/19 02:50:06;;;;;;;4.65;1.90;;;15.30;94.70;;;;;;4973312;28;20022;-70
2023/09/19 02:52:32;;;;;;;3.75;2.03;;;15.30;94.20;;;;;;4987567;28;20542;-70
2023/09/19 02:54:57;;;;;;;5.53;1.98;;;15.30;94.10;;;;;;4994877;28;20038;-71
2023/09/19 02:57:24;;;;;;;4.90;1.55;;;15.30;93.60;;;;;;4990770;28;20583;-70
2023/09/19 02:59:49;;;;;;;5.30;1.95;;;15.30;93.20;;;;;;4985538;28;20054;-70
2023/09/19 03:02:15;;;;;;;4.95;1.60;;;15.20;91.50;;;;;;4994909;28;20298;-69
2023/09/19 03:04:41;;;;;;;3.80;1.10;;;15.20;91.20;;;;;;4991201;28;20050;-70
2023/09/19 03:07:06;;;;;;;3.70;1.23;;;15.20;90.60;;;;;;4990960;28;20026;-70
2023/09/19 03:09:32;;;;;;;3.72;0.90;;;15.10;90.20;;;;;;4990760;28;20114;-69
2023/09/19 03:11:58;;;;;;;5.22;1.10;;;15.10;89.80;;;;;;4984824;28;20536;-72
2023/09/19 03:14:23;;;;;;;3.80;0.93;;;15.00;88.70;;;;;;4988278;28;20070;-70
2023/09/19 03:16:49;;;;;;;1.42;0.68;;;15.00;89.30;;;;;;4980595;28;20488;-69
2023/09/19 03:19:15;;;;;;;4.40;0.73;;;14.90;89.50;;;;;;4985008;28;20029;-71
2023/09/19 03:21:40;;;;;;;2.38;0.90;;;14.80;89.10;;;;;;4984279;28;20038;-69
2023/09/19 03:24:06;;;;;;;1.90;0.60;;;14.70;89.20;;;;;;4989751;28;20434;-71
2023/09/19 03:26:33;;;;;;;4.25;1.10;;;14.70;88.20;;;;;;4981990;28;20364;-70
2023/09/19 03:28:58;;;;;;;2.45;0.90;;;14.70;88.40;;;;;;4989847;28;20390;-73
2023/09/19 03:31:24;;;;;;;5.43;1.05;;;14.60;88.40;;;;;;4984213;28;20027;-71
2023/09/19 03:33:49;;;;;;;2.63;0.80;;;14.60;88.60;;;;;;4996665;28;20384;-70
2023/09/19 03:36:15;;;;;;;2.75;0.90;;;14.60;88.50;;;;;;4991746;28;20475;-71
2023/09/19 03:38:40;;;;;;;7.10;0.90;;;14.50;88.40;;;;;;4997204;28;20034;-71
2023/09/19 03:41:06;;;;;;;2.45;0.88;;;14.50;88.30;;;;;;4990606;28;20129;-70
2023/09/19 03:43:34;;;;;;;3.08;0.82;;;14.40;88.60;;;;;;4987439;28;20076;-72
2023/09/19 03:46:07;;;;;;;3.25;0.95;;;14.30;88.60;;;;;;4981651;28;20030;-70
2023/09/19 03:48:33;;;;;;;2.72;0.77;;;14.20;88.90;;;;;;4988775;28;20030;-70
2023/09/19 03:50:58;;;;;;;3.35;1.05;;;14.10;89.10;;;;;;4991366;28;20084;-70
2023/09/19 03:53:24;;;;;;;4.50;0.90;;;14.10;89.40;;;;;;4991410;28;20042;-71
2023/09/19 03:55:49;;;;;;;3.45;0.70;;;14.00;89.30;;;;;;4982649;28;20080;-70
2023/09/19 03:58:15;;;;;;;2.63;1.08;;;13.90;89.50;;;;;;4982209;28;20038;-70
2023/09/19 04:00:40;;;;;;;3.92;1.00;;;13.90;89.70;;;;;;4984641;28;20057;-71
2023/09/19 04:03:07;;;;;;;2.05;0.70;;;13.80;89.90;;;;;;4984016;28;20486;-70
2023/09/19 04:05:33;;;;;;;3.88;0.93;;;13.70;90.10;;;;;;4990421;28;20475;-70
2023/09/19 04:07:59;;;;;;;2.05;0.80;;;13.70;90.30;;;;;;4999291;28;20019;-70
2023/09/19 04:10:24;;;;;;;4.20;1.17;;;13.70;90.60;;;;;;4994658;28;20065;-72
2023/09/19 04:12:54;;;;;;;3.63;0.90;;;13.70;90.50;;;;;;4987889;28;20034;-70
2023/09/19 04:15:22;;;;;;;6.35;1.27;;;13.60;90.70;;;;;;4996916;28;20026;-69
2023/09/19 04:17:47;;;;;;;2.30;0.90;;;13.60;90.70;;;;;;4988870;28;20030;-71
2023/09/19 04:20:13;;;;;;;3.35;1.02;;;13.60;90.90;;;;;;4988461;28;20049;-69
2023/09/19 04:22:39;;;;;;;4.90;1.00;;;13.60;91.00;;;;;;4990771;28;20026;-70
2023/09/19 04:25:06;;;;;;;3.85;0.77;;;13.60;91.10;;;;;;4991282;28;20125;-73
2023/09/19 04:27:32;;;;;;;3.78;1.10;;;13.60;91.20;;;;;;4984755;28;20060;-67
2023/09/19 04:29:59;;;;;;;2.40;0.93;;;13.60;91.40;;;;;;4986009;28;20121;-67
2023/09/19 04:32:28;;;;;;;2.25;1.10;;;13.50;91.30;;;;;;4985283;28;20031;-68
2023/09/19 04:34:53;;;;;;;2.10;0.95;;;13.50;91.40;;;;;;4983672;28;20144;-67
2023/09/19 04:37:19;;;;;;;4.40;1.23;;;13.50;91.50;;;;;;4983421;28;20615;-67
2023/09/19 04:39:45;;;;;;;7.97;1.30;;;13.50;91.50;;;;;;4985584;28;20026;-68
2023/09/19 04:42:14;;;;;;;5.50;0.90;;;13.50;91.50;;;;;;4963909;28;20035;-68
2023/09/19 04:44:40;;;;;;;4.53;0.98;;;13.40;91.80;;;;;;4978358;28;20069;-68
2023/09/19 04:47:06;;;;;;;6.03;1.30;;;13.40;91.60;;;;;;4984076;28;20058;-67
2023/09/19 04:49:31;;;;;;;7.07;1.17;;;13.40;91.70;;;;;;4983520;28;20110;-71
2023/09/19 04:51:56;;;;;;;6.28;1.52;;;13.30;91.80;;;;;;4988418;28;20585;-67
2023/09/19 04:54:22;;;;;;;4.55;1.23;;;13.30;91.90;;;;;;4990947;28;20046;-67
2023/09/19 04:56:48;;;;;;;5.80;1.17;;;13.20;92.10;;;;;;4988182;28;20066;-67
2023/09/19 04:59:14;;;;;;;4.43;1.48;;;13.30;92.00;;;;;;4988297;28;20022;-66
2023/09/19 05:01:40;;;;;;;6.47;1.55;;;13.20;92.00;;;;;;4987735;28;20108;-68
2023/09/19 05:04:05;;;;;;;5.75;1.50;;;13.30;92.20;;;;;;4971617;28;20097;-67
2023/09/19 05:06:31;;;;;;;5.53;1.08;;;13.20;92.20;;;;;;4989759;28;20114;-67
2023/09/19 05:08:56;;;;;;;5.28;1.40;;;13.20;92.40;;;;;;4987489;28;20110;-69
2023/09/19 05:11:22;;;;;;;3.75;1.30;;;13.20;92.60;;;;;;4986726;28;20034;-67
2023/09/19 05:13:50;;;;;;;4.18;1.40;;;13.10;92.40;;;;;;4984989;28;20031;-68
2023/09/19 05:16:16;;;;;;;5.43;1.30;;;13.20;92.50;;;;;;4985483;28;20035;-66
2023/09/19 05:18:42;;;;;;;6.85;2.08;;;13.10;92.50;;;;;;4988303;28;20507;-67
2023/09/19 05:21:07;;;;;;;3.60;1.33;;;13.20;92.40;;;;;;4988414;28;20041;-68
2023/09/19 05:23:33;;;;;;;5.35;1.50;;;13.10;92.50;;;;;;4991510;28;20042;-67
2023/09/19 05:25:59;;;;;;;7.88;1.58;;;13.10;92.80;;;;;;4970349;28;20447;-67
2023/09/19 05:28:26;;;;;;;7.93;1.23;;;13.10;92.80;;;;;;4995090;28;20033;-67
2023/09/19 05:30:52;;;;;;;6.63;1.90;;;13.10;92.90;;;;;;4989334;28;20053;-67
2023/09/19 05:33:18;;;;;;;7.45;1.80;;;13.10;92.80;;;;;;4975899;28;20038;-68
2023/09/19 05:35:46;;;;;;;3.83;1.25;;;13.10;92.90;;;;;;4981989;28;20707;-67
2023/09/19 05:38:13;;;;;;;6.13;1.55;;;13.20;93.00;;;;;;4990388;28;20030;-71
2023/09/19 05:40:42;;;;;;;13.57;1.80;;;13.10;92.90;;;;;;4986268;28;20038;-67
2023/09/19 05:43:11;;;;;;;3.85;1.50;;;13.10;93.00;;;;;;4983185;28;20038;-67
2023/09/19 05:45:37;;;;;;;5.60;1.45;;;13.20;93.20;;;;;;4985759;28;20118;-67
2023/09/19 05:48:15;;;;;;;4.88;1.17;;;13.20;93.10;;;;;;4985917;28;20121;-67
2023/09/19 05:50:41;;;;;;;7.30;1.70;;;13.30;92.90;;;;;;4990613;28;20109;-68
2023/09/19 05:53:06;;;;;;;7.43;2.22;;;13.40;93.00;;;;;;4992146;28;20185;-69
2023/09/19 05:55:32;;;;;;;7.93;1.92;;;13.40;92.80;;;;;;4990184;28;20047;-68
2023/09/19 05:57:58;;;;;;;5.82;1.50;;;13.50;92.80;;;;;;4990378;28;20080;-70
2023/09/19 06:00:27;;;;;;;4.20;1.65;;;13.60;92.70;;;;;;4985963;28;20034;-69
2023/09/19 06:02:57;;;;;;;4.25;1.63;;;13.60;92.60;;;;;;4964690;28;20022;-67
2023/09/19 06:05:24;;;;;;;8.03;1.70;;;13.80;92.30;;;;;;4983736;28;20217;-69
2023/09/19 06:07:50;;;;;;;8.30;1.80;;;13.80;91.90;;;;;;4969096;28;20080;-67
2023/09/19 06:10:17;;;;;;;6.03;1.83;;;13.90;91.90;;;;;;4986756;28;20034;-67
2023/09/19 06:12:46;;;;;;;7.45;1.95;;;14.00;91.70;;;;;;4991954;28;20019;-67
2023/09/19 06:15:15;;;;;;;6.35;1.92;;;14.10;91.40;;;;;;4972361;28;20494;-67
2023/09/19 06:17:50;;;;;;;8.65;1.75;;;14.20;91.30;;;;;;4984614;28;20057;-69
2023/09/19 06:20:16;;;;;;;7.90;1.58;;;14.30;91.10;;;;;;4987300;28;20077;-67
2023/09/19 06:22:43;;;;;;;5.68;1.45;;;14.40;91.10;;;;;;4989973;28;20382;-67
2023/09/19 06:25:11;;;;;;;11.30;1.98;;;14.50;90.80;;;;;;4988900;28;20050;-69
2023/09/19 06:27:39;;;;;;;5.80;1.58;;;14.50;90.80;;;;;;4988965;28;20041;-67
2023/09/19 06:30:06;;;;;;;8.30;1.70;;;14.50;90.60;;;;;;4984635;28;20038;-67
2023/09/19 06:32:31;;;;;;;7.03;1.77;;;14.60;90.60;;;;;;4977997;28;20069;-68
2023/09/19 06:34:59;;;;;;;6.50;1.48;;;14.60;90.70;;;;;;4982156;28;20446;-67
2023/09/19 06:37:27;;;;;;;7.43;1.63;;;14.60;90.80;;;;;;4976551;28;20030;-68
2023/09/19 06:39:53;;;;;;;5.80;1.50;;;14.70;90.80;;;;;;4987721;28;20117;-67
2023/09/19 06:42:19;;;;;;;7.25;1.90;;;14.80;90.50;;;;;;4987816;28;20105;-68
2023/09/19 06:44:44;;;;;;;4.63;1.67;;;14.80;90.50;;;;;;4980432;28;20042;-68
2023/09/19 06:47:10;;;;;;;4.88;1.65;;;14.90;90.30;;;;;;4989885;28;20441;-68
2023/09/19 06:49:37;;;;;;;8.98;2.00;;;14.90;90.10;;;;;;4994225;28;20030;-68
2023/09/19 06:52:03;;;;;;;8.25;2.17;;;14.90;89.80;;;;;;4969857;28;20395;-68
2023/09/19 06:54:34;;;;;;;7.32;1.50;;;15.00;90.00;;;;;;4986147;28;20034;-67
2023/09/19 06:56:59;;;;;;;5.53;1.60;;;15.00;89.70;;;;;;4988074;28;20309;-68
2023/09/19 06:59:25;;;;;;;6.53;1.48;;;14.90;89.70;;;;;;4987614;28;20498;-68
2023/09/19 07:01:51;;;;;;;5.97;1.63;;;15.00;89.60;;;;;;4988900;28;20045;-67
2023/09/19 07:04:19;;;;;;;7.13;2.17;;;15.00;89.40;;;;;;4972118;28;20030;-68
2023/09/19 07:06:45;;;;;;;7.60;1.73;;;15.00;89.70;;;;;;4985435;28;20088;-68
2023/09/19 07:09:12;;;;;;;6.25;1.65;;;15.10;89.40;;;;;;4983306;28;20082;-71
2023/09/19 07:11:37;;;;;;;9.80;1.60;;;15.10;89.40;;;;;;4988203;28;20027;-69
2023/09/19 07:14:03;;;;;;;6.80;1.83;;;15.10;88.50;;;;;;4990307;28;20026;-69
2023/09/19 07:16:29;;;;;;;5.40;1.83;;;15.10;88.60;;;;;;4991502;28;20049;-68
2023/09/19 07:18:56;;;;;;;6.78;1.80;;;15.10;88.50;;;;;;4986019;28;20045;-68
2023/09/19 07:21:22;;;;;;;6.68;1.60;;;15.20;88.30;;;;;;4994549;28;20034;-68
2023/09/19 07:23:47;;;;;;;6.07;1.50;;;15.20;88.50;;;;;;4987261;28;20046;-69
2023/09/19 07:26:13;;;;;;;7.07;1.58;;;15.30;88.10;;;;;;4988816;28;20042;-68
2023/09/19 07:28:38;;;;;;;5.88;2.00;;;15.30;87.70;;;;;;4987853;28;20026;-68
2023/09/19 07:31:05;;;;;;;11.30;2.25;;;15.40;88.10;;;;;;4983929;28;20039;-72
2023/09/19 07:33:31;;;;;;;7.82;1.77;;;15.40;87.40;;;;;;4986133;28;20041;-68
2023/09/19 07:35:56;;;;;;;5.35;1.90;;;15.40;87.30;;;;;;4983187;28;20034;-69
2023/09/19 07:38:22;;;;;;;5.65;1.60;;;15.40;87.50;;;;;;4985582;28;20038;-68
2023/09/19 07:40:48;;;;;;;5.68;1.52;;;15.40;87.00;;;;;;4980685;28;20463;-68
2023/09/19 07:43:13;;;;;;;11.88;1.92;;;15.40;87.10;;;;;;4986760;28;20106;-70
2023/09/19 07:45:39;;;;;;;11.02;1.70;;;15.40;87.30;;;;;;4988883;28;20034;-68
2023/09/19 07:48:06;;;;;;;4.80;1.60;;;15.50;87.10;;;;;;4998252;28;20042;-70
2023/09/19 07:50:36;;;;;;;8.77;1.52;;;15.50;86.70;;;;;;4983737;28;20038;-69
2023/09/19 07:53:04;;;;;;;8.07;1.63;;;15.70;86.40;;;;;;4987827;28;20031;-66
2023/09/19 07:55:30;;;;;;;7.35;1.70;;;15.70;85.80;;;;;;4995468;28;20034;-67
2023/09/19 07:57:56;;;;;;;9.90;2.10;;;15.80;85.00;;;;;;5005037;28;20368;-68
2023/09/19 08:00:21;;;;;;;6.03;1.65;;;15.90;85.20;;;;;;4991373;28;20030;-68
2023/09/19 08:02:51;;;;;;;6.63;1.67;;;15.90;84.80;;;;;;4995808;28;20042;-67
2023/09/19 08:05:18;;;;;;;7.75;1.60;;;15.90;84.40;;;;;;4995641;28;20027;-67
2023/09/19 08:07:48;;;;;;;7.53;1.42;;;15.90;83.90;;;;;;4992090;28;20041;-67
2023/09/19 08:10:15;;;;;;;8.77;1.60;;;15.80;83.50;;;;;;4989994;28;20130;-67
2023/09/19 08:12:48;;;;;;;7.88;1.55;;;15.90;83.60;;;;;;4984009;28;20031;-68
2023/09/19 08:15:20;;;;;;;7.75;1.58;;;16.00;83.70;;;;;;4988281;28;20038;-68
2023/09/19 08:17:46;;;;;;;6.85;1.42;;;16.00;83.30;;;;;;4977593;28;20531;-67
2023/09/19 08:20:17;;;;;;;5.07;1.20;;;16.10;83.40;;;;;;4989179;28;20029;-68
2023/09/19 08:22:52;;;;;;;5.72;1.40;;;16.20;82.90;;;;;;4968568;28;20034;-69
2023/09/19 08:25:18;;;;;;;6.80;1.30;;;16.10;82.80;;;;;;4990595;28;20054;-66
2023/09/19 08:27:48;;;;;;;9.45;1.65;;;16.10;82.10;;;;;;4990512;28;20030;-68
2023/09/19 08:30:26;;;;;;;4.95;1.30;;;16.30;82.40;;;;;;4991773;28;20491;-68
2023/09/19 08:32:58;;;;;;;5.05;1.08;;;16.30;82.10;;;;;;4983512;28;20045;-67
2023/09/19 08:35:24;;;;;;;8.70;1.75;;;16.30;80.70;;;;;;4988795;28;20125;-70
2023/09/19 08:37:50;;;;;;;7.10;1.38;;;16.40;81.10;;;;;;4985808;28;20275;-67
2023/09/19 08:40:16;;;;;;;5.97;1.35;;;16.50;81.40;;;;;;4981559;28;20443;-68
2023/09/19 08:42:53;;;;;;;11.15;1.70;;;16.60;79.90;;;;;;4992621;28;20087;-68
2023/09/19 08:45:19;;;;;;;5.72;1.30;;;16.70;79.50;;;;;;4992710;28;20084;-68
2023/09/19 08:47:57;;;;;;;6.18;1.48;;;16.90;78.70;;;;;;4988348;28;20077;-69
2023/09/19 08:50:28;;;;;;;5.30;1.48;;;17.00;78.50;;;;;;4987793;28;20018;-68
2023/09/19 08:52:55;;;;;;;9.55;1.75;;;17.00;77.40;;;;;;4985381;28;20122;-68
2023/09/19 08:55:27;;;;;;;6.88;1.75;;;17.00;77.50;;;;;;4990859;28;20058;-68
2023/09/19 08:57:59;;;;;;;6.00;1.13;;;17.10;78.10;;;;;;4972936;28;20034;-67
2023/09/19 09:00:25;;;;;;;4.60;1.60;;;17.10;76.20;;;;;;4975198;28;20054;-68
2023/09/19 09:02:51;;;;;;;5.45;1.30;;;17.00;76.80;;;;;;4989135;28;20018;-67
2023/09/19 09:05:22;;;;;;;4.38;1.33;;;17.10;76.80;;;;;;4974955;28;20559;-68
2023/09/19 09:07:50;;;;;;;6.22;1.48;;;17.20;76.90;;;;;;4972791;28;20034;-69
2023/09/19 09:10:16;;;;;;;5.25;1.08;;;17.20;75.30;;;;;;4990693;28;20386;-68
2023/09/19 09:12:43;;;;;;;4.18;0.90;;;17.20;74.40;;;;;;4992406;28;20030;-67
2023/09/19 09:15:11;;;;;;;7.38;1.40;;;17.20;73.10;;;;;;4978264;28;20165;-68
2023/09/19 09:17:37;;;;;;;5.20;1.42;;;17.40;73.30;;;;;;4983846;28;20034;-68
2023/09/19 09:20:05;;;;;;;5.20;1.23;;;17.60;74.50;;;;;;4991458;28;20030;-68
2023/09/19 09:22:31;;;;;;;6.82;1.30;;;17.60;72.20;;;;;;4988741;28;20030;-68
2023/09/19 09:24:58;;;;;;;6.00;1.40;;;17.90;73.40;;;;;;4994373;28;20046;-68
2023/09/19 09:27:24;;;;;;;6.20;1.00;;;18.00;72.10;;;;;;4991458;28;20376;-68
2023/09/19 09:29:51;;;;;;;5.07;1.27;;;18.10;71.70;;;;;;4987302;28;20448;-68
2023/09/19 09:32:33;;;;;;;4.00;0.95;;;18.00;71.50;;;;;;4986571;28;20023;-68
2023/09/19 09:35:00;;;;;;;8.30;1.05;;;18.10;72.10;;;;;;4989447;28;20340;-68
2023/09/19 09:37:28;;;;;;;7.07;1.40;;;18.10;71.00;;;;;;4986134;28;20035;-68
2023/09/19 09:40:19;;;;;;;7.70;1.15;;;18.00;71.20;;;;;;4990957;28;20026;-68
2023/09/19 09:42:46;;;;;;;5.88;1.20;;;18.00;71.60;;;;;;4988761;28;20087;-68
2023/09/19 09:45:16;;;;;;;5.38;1.33;;;17.90;71.40;;;;;;4992311;28;20145;-69
2023/09/19 09:47:55;;;;;;;5.93;1.23;;;18.00;71.60;;;;;;4990028;28;20031;-68
2023/09/19 09:53:37;;;;;;;4.97;1.40;;;18.00;72.30;;;;;;4989542;28;20042;-68
2023/09/19 09:56:06;;;;;;;4.00;1.17;;;18.00;72.50;;;;;;4990233;28;20026;-68
2023/09/19 09:58:56;;;;;;;3.65;1.20;;;18.10;71.00;;;;;;4990781;28;20068;-68
2023/09/19 10:01:26;;;;;;;5.97;1.20;;;18.00;71.30;;;;;;4976511;28;20077;-70
2023/09/19 10:03:57;;;;;;;4.40;0.90;;;17.90;71.90;;;;;;4989799;28;20027;-67
2023/09/19 10:06:26;;;;;;;5.00;1.10;;;17.80;72.20;;;;;;4986122;28;20740;-68
2023/09/19 10:09:11;;;;;;;6.05;1.10;;;17.80;71.50;;;;;;4993402;28;20038;-68
2023/09/19 10:11:47;;;;;;;8.43;1.60;;;17.70;71.10;;;;;;4992177;28;20045;-68
2023/09/19 10:14:18;;;;;;;7.45;1.38;;;17.90;71.60;;;;;;4987581;28;20073;-69
2023/09/19 10:16:48;;;;;;;7.57;1.40;;;17.70;72.30;;;;;;4976632;28;20038;-68
2023/09/19 10:19:24;;;;;;;8.95;1.35;;;17.80;72.20;;;;;;4991253;28;20053;-69
2023/09/19 10:21:53;;;;;;;7.28;1.40;;;18.20;72.70;;;;;;4988672;28;20096;-67
2023/09/19 10:24:19;;;;;;;5.32;1.00;;;18.30;70.90;;;;;;4993917;28;20054;-68
2023/09/19 10:26:46;;;;;;;4.50;1.10;;;18.30;70.40;;;;;;4990749;28;20038;-68
2023/09/19 10:29:17;;;;;;;8.93;1.25;;;18.50;70.10;;;;;;4989638;28;20026;-68
2023/09/19 10:31:47;;;;;;;6.15;1.48;;;18.50;69.50;;;;;;4986537;28;20034;-68
2023/09/19 10:34:15;;;;;;;6.75;1.05;;;18.50;70.10;;;;;;4972008;28;20018;-68
2023/09/19 10:36:46;;;;;;;3.50;0.90;;;18.30;70.50;;;;;;4987866;28;20053;-68
2023/09/19 10:39:18;;;;;;;4.72;0.98;;;18.30;72.10;;;;;;4992325;28;20018;-68
2023/09/19 10:41:53;;;;;;;4.95;0.98;;;18.30;70.40;;;;;;4992598;28;20454;-69
2023/09/19 10:44:22;;;;;;;4.00;1.02;;;18.30;69.90;;;;;;5007491;28;20119;-69
2023/09/19 10:46:48;;;;;;;7.03;1.52;;;18.20;67.20;;;;;;4987022;28;20037;-69
2023/09/19 10:49:13;;;;;;;6.03;1.48;;;18.40;67.60;;;;;;4991532;28;20022;-68
2023/09/19 10:51:45;;;;;;;2.15;0.95;;;18.40;67.30;;;;;;4996617;28;20500;-68
2023/09/19 10:54:17;;;;;;;3.78;1.33;;;18.20;67.70;;;;;;4992317;28;20097;-67
2023/09/19 10:56:48;;;;;;;4.38;1.00;;;18.20;68.90;;;;;;4991474;28;20029;-68
2023/09/19 10:59:18;;;;;;;5.32;1.10;;;18.00;69.20;;;;;;4985142;28;20022;-68
2023/09/19 11:01:52;;;;;;;6.97;1.20;;;18.00;69.70;;;;;;4980960;28;20494;-69
2023/09/19 11:04:31;;;;;;;3.72;0.93;;;17.90;70.30;;;;;;4987411;28;20097;-68
2023/09/19 11:07:04;;;;;;;8.30;1.30;;;17.80;70.30;;;;;;4981300;28;20026;-68
2023/09/19 11:09:57;;;;;;;6.57;1.52;;;17.60;69.40;;;;;;4987571;28;20027;-68
2023/09/19 11:12:29;;;;;;;2.88;1.00;;;17.50;70.40;;;;;;4987721;28;20022;-68
2023/09/19 11:14:55;;;;;;;4.63;1.00;;;17.60;70.70;;;;;;4990794;28;20031;-68
2023/09/19 11:17:21;;;;;;;8.23;1.10;;;17.90;72.90;;;;;;4986130;28;20101;-68
2023/09/19 11:20:15;;;;;;;3.58;1.02;;;18.00;70.80;;;;;;4970681;28;20058;-68
2023/09/19 11:22:50;;;;;;;6.80;1.35;;;17.90;70.00;;;;;;4988788;28;20022;-68
2023/09/19 11:25:31;;;;;;;4.63;1.30;;;18.00;70.70;;;;;;4994317;28;20409;-68
2023/09/19 11:28:05;;;;;;;6.05;1.27;;;18.00;70.40;;;;;;4988898;28;20439;-69
2023/09/19 11:30:32;;;;;;;4.90;1.33;;;18.10;71.10;;;;;;4988237;28;20064;-69
2023/09/19 11:33:23;;;;;;;5.80;1.27;;;18.30;71.20;;;;;;4992358;28;20050;-72
2023/09/19 11:36:04;;;;;;;6.25;1.25;;;18.20;70.30;;;;;;4993053;28;20108;-68
2023/09/19 11:38:45;;;;;;;8.48;1.73;;;18.50;70.50;;;;;;4992906;28;21156;-68
2023/09/19 11:41:26;;;;;;;4.60;1.10;;;18.60;69.80;;;;;;4984046;28;20025;-68
2023/09/19 11:44:16;;;;;;;10.32;1.40;;;18.80;67.80;;;;;;4995011;28;20029;-68
2023/09/19 11:46:51;;;;;;;7.05;1.50;;;19.20;67.60;;;;;;4998998;28;20401;-68
2023/09/19 11:49:23;;;;;;;3.83;1.10;;;19.20;68.00;;;;;;4993559;28;20072;-68
2023/09/19 11:51:53;;;;;;;4.60;1.25;;;19.50;66.90;;;;;;4980587;28;20027;-71
2023/09/19 11:54:21;;;;;;;5.15;1.70;;;19.80;66.90;;;;;;4998137;28;20049;-68
2023/09/19 11:56:54;;;;;;;2.85;0.85;;;19.90;67.10;;;;;;4988558;28;20129;-69
2023/09/19 11:59:39;;;;;;;6.10;1.27;;;20.20;65.20;;;;;;4973375;28;20081;-68
2023/09/19 12:02:05;;;;;;;6.00;1.33;;;19.90;65.10;;;;;;4992952;28;20471;-69
2023/09/19 12:04:43;;;;;;;6.25;1.42;;;20.10;63.90;;;;;;4990576;28;20023;-69
2023/09/19 12:07:15;;;;;;;7.22;1.10;;;19.40;65.70;;;;;;4998789;28;20030;-68
2023/09/19 12:10:04;;;;;;;7.18;1.20;;;19.90;66.00;;;;;;4995984;28;20050;-68
2023/09/19 12:12:30;;;;;;;5.78;1.40;;;20.50;65.30;;;;;;4976804;28;20034;-69
2023/09/19 12:14:59;;;;;;;7.13;1.50;;;20.70;64.40;;;;;;4992340;28;20041;-68
2023/09/19 12:17:46;;;;;;;7.10;1.45;;;20.50;63.70;;;;;;4993415;28;20022;-70
2023/09/19 12:20:13;;;;;;;7.43;1.48;;;20.40;64.20;;;;;;4987926;28;20113;-69
2023/09/19 12:22:43;;;;;;;6.75;1.67;;;20.00;63.40;;;;;;4987344;28;20022;-69
2023/09/19 12:25:11;;;;;;;6.05;1.40;;;19.70;63.60;;;;;;4994230;28;20366;-68
2023/09/19 12:27:46;;;;;;;6.65;1.40;;;19.90;62.40;;;;;;4994150;28;20026;-68
2023/09/19 12:30:17;;;;;;;6.05;1.50;;;19.90;62.60;;;;;;4977907;28;20121;-68
2023/09/19 12:32:44;;;;;;;4.40;1.48;;;19.40;63.30;;;;;;4983051;28;20573;-68
2023/09/19 12:35:12;;;;;;;6.32;1.50;;;19.70;62.20;;;;;;4989458;28;20077;-68
2023/09/19 12:37:48;;;;;;;3.70;1.63;;;19.40;63.40;;;;;;4987746;28;20426;-68
2023/09/19 12:40:17;;;;;;;7.43;1.42;;;19.60;61.90;;;;;;4991495;28;20451;-68
2023/09/19 12:42:46;;;;;;;5.13;1.33;;;19.90;62.80;;;;;;4992041;28;20030;-68
2023/09/19 12:45:15;;;;;;;3.83;1.42;;;20.00;62.60;;;;;;4992041;28;20399;-69
2023/09/19 12:47:43;;;;;;;7.97;1.88;;;20.00;63.30;;;;;;4984823;28;20034;-68
2023/09/19 12:50:17;;;;;;;5.15;1.50;;;19.90;61.90;;;;;;4980472;28;20018;-69
2023/09/19 12:52:49;;;;;;;4.32;1.25;;;19.50;62.00;;;;;;4983026;28;20038;-70
2023/09/19 12:55:25;;;;;;;5.95;1.33;;;19.60;61.60;;;;;;4984689;28;20035;-68
2023/09/19 12:58:12;;;;;;;7.53;1.67;;;19.30;62.70;;;;;;4993583;28;20037;-69
2023/09/19 13:00:41;;;;;;;5.75;1.45;;;19.40;64.80;;;;;;4992394;28;20045;-69
2023/09/19 13:03:28;;;;;;;6.07;1.48;;;19.30;63.60;;;;;;4963954;28;20282;-69